createdAt,value
2019-02-23T00:01:05.880Z,10.53
2019-02-23T00:03:33.326Z,10.43
2019-02-23T00:06:00.730Z,10.80
2019-02-23T00:08:28.236Z,11.12
2019-02-23T00:10:55.679Z,10.75
2019-02-23T00:13:23.080Z,11.18
2019-02-23T00:15:50.466Z,11.73
2019-02-23T00:18:17.984Z,11.25
2019-02-23T00:20:45.379Z,11.97
2019-02-23T00:23:13.136Z,11.93
2019-02-23T00:25:40.565Z,12.18
2019-02-23T00:28:07.991Z,11.80
2019-02-23T00:30:35.401Z,12.43
2019-02-23T00:33:02.930Z,11.83
2019-02-23T00:35:30.340Z,12.15
2019-02-23T00:37:57.739Z,12.33
2019-02-23T00:40:25.169Z,12.47
2019-02-23T00:42:52.578Z,12.10
2019-02-23T00:45:19.989Z,12.25
2019-02-23T00:47:47.419Z,12.98
2019-02-23T00:50:14.938Z,12.85
2019-02-23T00:52:42.348Z,12.35
2019-02-23T00:55:09.797Z,12.85
2019-02-23T00:57:37.194Z,12.15
2019-02-23T01:00:04.589Z,12.28
2019-02-23T01:02:32.165Z,13.25
2019-02-23T01:04:59.572Z,12.60
2019-02-23T01:07:27.031Z,12.20
2019-02-23T01:09:54.550Z,12.70
2019-02-23T01:12:21.959Z,13.25
2019-02-23T01:14:49.455Z,12.25
2019-02-23T01:17:16.866Z,12.58
2019-02-23T01:19:47.804Z,13.30
2019-02-23T01:22:13.395Z,12.70
2019-02-23T01:24:40.804Z,12.75
2019-02-23T01:27:08.215Z,12.80
2019-02-23T01:29:35.613Z,13.22
2019-02-23T01:32:03.021Z,12.68
2019-02-23T01:34:30.613Z,13.22
2019-02-23T01:36:58.012Z,12.55
2019-02-23T01:39:25.401Z,13.55
2019-02-23T01:41:52.823Z,12.68
2019-02-23T01:44:20.229Z,13.25
2019-02-23T01:46:47.685Z,12.82
2019-02-23T01:49:15.124Z,12.85
2019-02-23T01:51:42.533Z,13.95
2019-02-23T01:54:09.919Z,12.60
2019-02-23T01:56:37.416Z,12.43
2019-02-23T01:59:04.847Z,12.75
2019-02-23T02:01:32.247Z,12.43
2019-02-23T02:03:59.683Z,13.03
2019-02-23T02:06:27.275Z,11.97
2019-02-23T02:08:54.677Z,12.85
2019-02-23T02:11:22.599Z,13.13
2019-02-23T02:13:50.004Z,13.30
2019-02-23T02:16:17.384Z,13.43
2019-02-23T02:18:45.028Z,12.50
2019-02-23T02:21:12.552Z,12.23
2019-02-23T02:23:39.973Z,12.55
2019-02-23T02:26:07.460Z,13.13
2019-02-23T02:28:34.882Z,12.25
2019-02-23T02:31:02.347Z,12.00
2019-02-23T02:33:29.971Z,12.85
2019-02-23T02:35:57.379Z,12.50
2019-02-23T02:38:24.808Z,12.80
2019-02-23T02:40:52.299Z,12.70
2019-02-23T02:43:19.694Z,12.33
2019-02-23T02:45:47.102Z,11.93
2019-02-23T02:48:14.678Z,12.23
2019-02-23T02:50:42.074Z,12.55
2019-02-23T02:53:09.468Z,13.68
2019-02-23T02:55:37.112Z,12.53
2019-02-23T02:58:04.496Z,12.80
2019-02-23T03:00:31.914Z,13.08
2019-02-23T03:02:59.419Z,13.90
2019-02-23T03:05:26.828Z,12.82
2019-02-23T03:07:54.231Z,12.78
2019-02-23T03:10:21.664Z,12.10
2019-02-23T03:12:49.097Z,12.40
2019-02-23T03:15:16.492Z,11.97
2019-02-23T03:17:44.054Z,12.70
2019-02-23T03:20:11.459Z,12.82
2019-02-23T03:22:38.871Z,13.68
2019-02-23T03:25:06.669Z,12.77
2019-02-23T03:27:34.152Z,13.30
2019-02-23T03:30:01.537Z,13.23
2019-02-23T03:32:29.000Z,12.05
2019-02-23T03:34:56.613Z,13.05
2019-02-23T03:37:24.080Z,12.67
2019-02-23T03:39:51.513Z,11.70
2019-02-23T03:42:18.929Z,11.93
2019-02-23T03:44:46.333Z,12.55
2019-02-23T03:47:13.849Z,12.68
2019-02-23T03:49:41.264Z,13.32
2019-02-23T03:52:08.751Z,13.10
2019-02-23T03:54:36.215Z,12.30
2019-02-23T03:57:03.615Z,12.53
2019-02-23T03:59:31.266Z,12.50
2019-02-23T04:01:58.685Z,13.00
2019-02-23T04:04:26.084Z,12.28
2019-02-23T04:06:53.496Z,12.70
2019-02-23T04:09:20.931Z,11.80
2019-02-23T04:11:48.533Z,12.63
2019-02-23T04:14:15.941Z,12.80
2019-02-23T04:16:43.348Z,12.68
2019-02-23T04:19:10.767Z,12.60
2019-02-23T04:21:38.175Z,12.18
2019-02-23T04:24:05.611Z,11.68
2019-02-23T04:26:33.044Z,12.00
2019-02-23T04:29:00.452Z,12.23
2019-02-23T04:31:27.891Z,12.10
2019-02-23T04:33:55.280Z,12.03
2019-02-23T04:36:22.699Z,12.65
2019-02-23T04:38:50.122Z,12.93
2019-02-23T04:41:17.519Z,11.78
2019-02-23T04:43:45.010Z,11.65
2019-02-23T04:46:12.425Z,11.75
2019-02-23T04:48:39.893Z,11.12
2019-02-23T04:51:14.523Z,11.63
2019-02-23T04:53:36.533Z,11.18
2019-02-23T04:56:04.005Z,10.93
2019-02-23T04:58:31.431Z,11.28
2019-02-23T05:00:58.818Z,11.63
2019-02-23T05:03:26.244Z,11.22
2019-02-23T05:05:53.644Z,11.12
2019-02-23T05:08:21.048Z,10.70
2019-02-23T05:10:48.917Z,10.90
2019-02-23T05:13:16.471Z,10.65
2019-02-23T05:15:43.873Z,10.98
2019-02-23T05:18:11.258Z,10.95
2019-02-23T05:20:38.684Z,11.10
2019-02-23T05:23:06.088Z,10.90
2019-02-23T05:25:33.525Z,10.25
2019-02-23T05:28:00.946Z,10.80
2019-02-23T05:30:28.350Z,10.53
2019-02-23T05:32:55.733Z,10.88
2019-02-23T05:35:23.167Z,11.00
2019-02-23T05:37:50.893Z,11.45
2019-02-23T05:40:18.294Z,10.80
2019-02-23T05:42:45.837Z,10.95
2019-02-23T05:45:13.242Z,10.48
2019-02-23T05:47:40.726Z,10.47
2019-02-23T05:50:08.162Z,10.27
2019-02-23T05:52:35.815Z,10.63
2019-02-23T05:55:03.286Z,11.03
2019-02-23T05:57:30.689Z,10.88
2019-02-23T05:59:58.283Z,10.70
2019-02-23T06:02:25.715Z,10.10
2019-02-23T06:04:53.127Z,10.20
2019-02-23T06:07:20.517Z,10.18
2019-02-23T06:09:47.956Z,10.70
2019-02-23T06:12:15.363Z,10.23
2019-02-23T06:14:42.780Z,9.83
2019-02-23T06:17:10.518Z,10.40
2019-02-23T06:19:37.944Z,10.30
2019-02-23T06:22:05.357Z,9.30
2019-02-23T06:24:32.855Z,9.57
2019-02-23T06:27:00.269Z,9.93
2019-02-23T06:29:27.680Z,10.00
2019-02-23T06:31:55.105Z,9.60
2019-02-23T06:34:22.491Z,9.70
2019-02-23T06:36:49.915Z,10.03
2019-02-23T06:39:17.312Z,9.53
2019-02-23T06:41:44.712Z,9.60
2019-02-23T06:44:12.155Z,9.70
2019-02-23T06:46:39.772Z,9.40
2019-02-23T06:49:07.176Z,9.53
2019-02-23T06:51:34.672Z,9.75
2019-02-23T06:54:15.375Z,9.53
2019-02-23T06:56:31.255Z,8.88
2019-02-23T06:58:58.687Z,9.83
2019-02-23T07:01:26.073Z,9.58
2019-02-23T07:03:53.491Z,9.45
2019-02-23T07:06:20.908Z,9.48
2019-02-23T07:08:48.388Z,8.83
2019-02-23T07:11:17.467Z,9.85
2019-02-23T07:13:45.216Z,9.00
2019-02-23T07:16:12.665Z,9.15
2019-02-23T07:18:40.064Z,9.08
2019-02-23T07:21:07.495Z,8.65
2019-02-23T07:23:34.869Z,9.10
2019-02-23T07:26:02.298Z,9.07
2019-02-23T07:28:29.864Z,8.73
2019-02-23T07:30:57.305Z,8.63
2019-02-23T07:33:32.857Z,9.23
2019-02-23T07:35:53.850Z,10.28
2019-02-23T07:38:21.247Z,9.73
2019-02-23T07:40:48.996Z,9.88
2019-02-23T07:43:16.511Z,10.25
2019-02-23T07:45:43.934Z,10.58
2019-02-23T07:48:12.150Z,9.23
2019-02-23T07:50:39.573Z,10.15
2019-02-23T07:53:07.003Z,8.80
2019-02-23T07:55:34.567Z,10.15
2019-02-23T07:58:02.001Z,10.70
2019-02-23T08:00:29.434Z,9.88
2019-02-23T08:02:56.863Z,10.68
2019-02-23T08:05:24.372Z,10.45
2019-02-23T08:07:54.732Z,10.15
2019-02-23T08:10:22.147Z,9.48
2019-02-23T08:12:49.814Z,10.98
2019-02-23T08:15:17.253Z,10.93
2019-02-23T08:17:44.696Z,11.70
2019-02-23T08:20:12.239Z,11.18
2019-02-23T08:22:39.695Z,11.30
2019-02-23T08:25:07.089Z,12.43
2019-02-23T08:27:35.368Z,12.13
2019-02-23T08:30:02.783Z,12.15
2019-02-23T08:32:30.220Z,11.22
2019-02-23T08:34:57.817Z,12.88
2019-02-23T08:37:25.242Z,12.20
2019-02-23T08:39:52.717Z,12.95
2019-02-23T08:42:20.156Z,12.50
2019-02-23T08:44:47.610Z,12.45
2019-02-23T08:47:15.087Z,11.85
2019-02-23T08:49:42.495Z,11.33
2019-02-23T08:52:28.791Z,11.65
2019-02-23T08:54:56.257Z,10.90
2019-02-23T08:57:23.671Z,11.00
2019-02-23T08:59:51.067Z,11.18
2019-02-23T09:02:18.498Z,11.20
2019-02-23T09:04:46.092Z,9.93
2019-02-23T09:07:13.483Z,10.63
2019-02-23T09:09:41.057Z,10.65
2019-02-23T09:12:08.484Z,10.90
2019-02-23T09:14:36.072Z,10.72
2019-02-23T09:17:03.557Z,10.48
2019-02-23T09:19:31.045Z,10.72
2019-02-23T09:21:58.441Z,9.65
2019-02-23T09:24:25.865Z,9.30
2019-02-23T09:26:53.250Z,9.35
2019-02-23T09:29:20.644Z,9.95
2019-02-23T09:31:48.376Z,9.90
2019-02-23T09:34:15.832Z,9.43
2019-02-23T09:36:43.235Z,9.35
2019-02-23T09:39:10.660Z,9.90
2019-02-23T09:41:38.057Z,9.78
2019-02-23T09:44:05.453Z,9.45
2019-02-23T09:46:32.899Z,9.00
2019-02-23T09:49:00.312Z,10.08
2019-02-23T09:51:27.749Z,9.23
2019-02-23T09:53:55.177Z,8.88
2019-02-23T09:56:22.600Z,9.90
2019-02-23T09:58:50.181Z,9.98
2019-02-23T10:01:17.724Z,9.60
2019-02-23T10:03:45.109Z,9.35
2019-02-23T10:06:12.505Z,9.95
2019-02-23T10:08:40.062Z,10.38
2019-02-23T10:11:07.530Z,10.13
2019-02-23T10:13:34.921Z,9.55
2019-02-23T10:16:02.429Z,10.38
2019-02-23T10:18:29.989Z,9.60
2019-02-23T10:20:58.964Z,9.78
2019-02-23T10:23:26.794Z,8.78
2019-02-23T10:25:54.423Z,8.58
2019-02-23T10:28:21.810Z,7.80
2019-02-23T10:30:49.244Z,8.25
2019-02-23T10:33:16.846Z,8.73
2019-02-23T10:35:44.531Z,8.10
2019-02-23T10:38:12.271Z,8.38
2019-02-23T10:40:39.850Z,8.93
2019-02-23T10:43:07.286Z,8.38
2019-02-23T10:45:35.178Z,7.85
2019-02-23T10:48:02.804Z,8.18
2019-02-23T10:50:31.100Z,7.22
2019-02-23T10:52:59.026Z,6.72
2019-02-23T10:55:26.444Z,7.05
2019-02-23T10:57:53.838Z,6.72
2019-02-23T11:00:22.002Z,6.28
2019-02-23T11:02:50.169Z,6.65
2019-02-23T11:05:18.454Z,6.45
2019-02-23T11:07:45.909Z,6.60
2019-02-23T11:10:13.339Z,6.55
2019-02-23T11:12:40.732Z,7.33
2019-02-23T11:15:08.254Z,6.28
2019-02-23T11:17:35.888Z,6.25
2019-02-23T11:20:06.687Z,6.45
2019-02-23T11:22:35.125Z,7.05
2019-02-23T11:25:03.435Z,5.62
2019-02-23T11:27:30.949Z,6.78
2019-02-23T11:29:58.476Z,6.20
2019-02-23T11:32:25.946Z,6.58
2019-02-23T11:34:54.096Z,5.58
2019-02-23T11:37:22.619Z,6.25
2019-02-23T11:39:50.624Z,6.10
2019-02-23T11:42:18.727Z,5.58
2019-02-23T11:44:46.271Z,5.80
2019-02-23T11:47:13.655Z,5.55
2019-02-23T11:49:41.244Z,5.60
2019-02-23T11:52:08.812Z,5.22
2019-02-23T11:54:36.284Z,5.78
2019-02-23T11:57:03.762Z,4.70
2019-02-23T11:59:31.215Z,5.03
2019-02-23T12:01:59.631Z,5.10
2019-02-23T12:04:27.042Z,5.50
2019-02-23T12:06:54.613Z,5.22
2019-02-23T12:09:22.004Z,5.70
2019-02-23T12:11:49.478Z,4.67
2019-02-23T12:14:16.935Z,4.80
2019-02-23T12:16:44.332Z,5.10
2019-02-23T12:19:11.737Z,5.25
2019-02-23T12:21:39.419Z,5.03
2019-02-23T12:24:06.818Z,5.17
2019-02-23T12:26:34.309Z,4.72
2019-02-23T12:29:01.751Z,4.90
2019-02-23T12:31:29.326Z,5.22
2019-02-23T12:33:56.753Z,5.12
2019-02-23T12:36:24.169Z,5.15
2019-02-23T12:38:51.551Z,5.40
2019-02-23T12:41:19.571Z,5.12
2019-02-23T12:43:46.993Z,5.55
2019-02-23T12:46:14.395Z,5.47
2019-02-23T12:48:41.886Z,5.90
2019-02-23T12:51:12.347Z,5.40
2019-02-23T12:53:39.739Z,4.70
2019-02-23T12:56:07.379Z,4.33
2019-02-23T12:58:34.802Z,5.28
2019-02-23T13:01:02.253Z,5.30
2019-02-23T13:03:29.690Z,5.03
2019-02-23T13:05:57.130Z,5.08
2019-02-23T13:08:24.537Z,5.40
2019-02-23T13:10:51.934Z,5.53
2019-02-23T13:13:19.379Z,5.78
2019-02-23T13:15:46.847Z,5.72
2019-02-23T13:18:14.240Z,5.60
2019-02-23T13:20:41.652Z,5.42
2019-02-23T13:23:09.094Z,5.53
2019-02-23T13:25:36.717Z,5.62
2019-02-23T13:28:04.194Z,5.45
2019-02-23T13:30:31.749Z,5.30
2019-02-23T13:32:59.168Z,5.28
2019-02-23T13:35:26.562Z,5.42
2019-02-23T13:37:54.312Z,5.62
2019-02-23T13:40:21.718Z,5.55
2019-02-23T13:42:49.113Z,5.42
2019-02-23T13:45:16.530Z,6.03
2019-02-23T13:47:43.926Z,5.92
2019-02-23T13:50:11.348Z,6.08
2019-02-23T13:52:38.834Z,5.97
2019-02-23T13:55:06.234Z,5.72
2019-02-23T13:57:33.663Z,5.33
2019-02-23T14:00:01.115Z,6.00
2019-02-23T14:02:28.521Z,5.50
2019-02-23T14:04:55.912Z,6.12
2019-02-23T14:07:23.345Z,5.95
2019-02-23T14:09:50.743Z,5.72
2019-02-23T14:12:18.158Z,5.10
2019-02-23T14:14:45.612Z,5.00
2019-02-23T14:17:13.007Z,6.05
2019-02-23T14:19:40.424Z,5.37
2019-02-23T14:22:07.830Z,5.37
2019-02-23T14:24:35.727Z,5.67
2019-02-23T14:27:03.235Z,5.70
2019-02-23T14:29:30.719Z,5.53
2019-02-23T14:31:58.147Z,5.50
2019-02-23T14:34:25.565Z,5.47
2019-02-23T14:36:53.003Z,5.70
2019-02-23T14:39:20.400Z,5.33
2019-02-23T14:41:47.808Z,5.55
2019-02-23T14:44:15.349Z,5.95
2019-02-23T14:46:42.795Z,5.42
2019-02-23T14:49:10.237Z,5.35
2019-02-23T14:51:37.712Z,5.42
2019-02-23T14:54:05.167Z,5.22
2019-02-23T14:56:32.748Z,5.47
2019-02-23T14:59:00.204Z,5.47
2019-02-23T15:01:27.747Z,5.53
2019-02-23T15:03:55.225Z,5.60
2019-02-23T15:06:22.922Z,5.75
2019-02-23T15:08:50.322Z,5.62
2019-02-23T15:11:17.744Z,5.62
2019-02-23T15:13:45.308Z,5.28
2019-02-23T15:16:31.594Z,5.60
2019-02-23T15:18:59.014Z,4.37
2019-02-23T15:21:26.430Z,5.20
2019-02-23T15:23:53.801Z,5.65
2019-02-23T15:26:21.396Z,4.55
2019-02-23T15:28:48.779Z,4.53
2019-02-23T15:31:16.162Z,3.98
2019-02-23T15:33:43.586Z,4.22
2019-02-23T15:36:10.984Z,4.08
2019-02-23T15:38:38.404Z,4.12
2019-02-23T15:41:05.969Z,4.03
2019-02-23T15:43:33.636Z,4.15
2019-02-23T15:46:01.098Z,4.53
2019-02-23T15:48:28.605Z,4.10
2019-02-23T15:50:56.203Z,4.70
2019-02-23T15:53:23.950Z,5.17
2019-02-23T15:55:51.389Z,4.92
2019-02-23T15:58:18.820Z,4.20
2019-02-23T16:00:46.624Z,4.78
2019-02-23T16:03:14.102Z,5.15
2019-02-23T16:05:41.536Z,4.83
2019-02-23T16:08:09.553Z,5.08
2019-02-23T16:10:37.314Z,4.70
2019-02-23T16:13:04.800Z,4.30
2019-02-23T16:15:32.265Z,4.42
2019-02-23T16:17:59.700Z,5.00
2019-02-23T16:20:27.194Z,5.45
2019-02-23T16:22:54.586Z,4.83
2019-02-23T16:25:22.081Z,4.97
2019-02-23T16:27:49.517Z,4.62
2019-02-23T16:30:16.996Z,5.25
2019-02-23T16:32:44.581Z,4.80
2019-02-23T16:35:12.065Z,5.05
2019-02-23T16:37:39.481Z,5.55
2019-02-23T16:40:06.895Z,6.40
2019-02-23T16:42:34.428Z,6.25
2019-02-23T16:45:01.883Z,6.55
2019-02-23T16:47:29.355Z,6.90
2019-02-23T16:49:56.806Z,6.75
2019-02-23T16:52:26.783Z,7.10
2019-02-23T16:54:54.424Z,6.78
2019-02-23T16:57:21.858Z,6.70
2019-02-23T16:59:49.290Z,6.80
2019-02-23T17:02:16.919Z,7.62
2019-02-23T17:04:53.080Z,7.37
2019-02-23T17:07:13.737Z,7.72
2019-02-23T17:09:41.245Z,7.45
2019-02-23T17:12:08.761Z,7.50
2019-02-23T17:14:36.257Z,8.13
2019-02-23T17:17:03.763Z,7.75
2019-02-23T17:19:31.351Z,7.47
2019-02-23T17:21:59.026Z,7.97
2019-02-23T17:24:26.598Z,7.33
2019-02-23T17:26:54.040Z,7.62
2019-02-23T17:29:22.281Z,6.97
2019-02-23T17:31:49.659Z,7.75
2019-02-23T17:34:17.099Z,6.90
2019-02-23T17:36:44.501Z,7.95
2019-02-23T17:39:11.895Z,8.13
2019-02-23T17:41:39.321Z,9.25
2019-02-23T17:44:06.723Z,9.50
2019-02-23T17:46:34.138Z,9.83
2019-02-23T17:49:01.671Z,9.85
2019-02-23T17:51:29.541Z,10.05
2019-02-23T17:53:57.017Z,9.58
2019-02-23T17:56:24.518Z,9.90
2019-02-23T17:58:51.918Z,9.93
2019-02-23T18:01:19.555Z,9.65
2019-02-23T18:03:46.954Z,9.33
2019-02-23T18:06:14.383Z,9.70
2019-02-23T18:08:41.916Z,10.08
2019-02-23T18:11:09.324Z,9.38
2019-02-23T18:13:36.736Z,9.48
2019-02-23T18:16:04.197Z,9.80
2019-02-23T18:18:31.641Z,10.00
2019-02-23T18:20:59.308Z,9.93
2019-02-23T18:23:26.740Z,10.32
2019-02-23T18:25:54.144Z,9.45
2019-02-23T18:28:21.636Z,9.88
2019-02-23T18:30:49.056Z,9.55
2019-02-23T18:33:16.448Z,9.38
2019-02-23T18:35:43.864Z,9.53
2019-02-23T18:38:11.446Z,10.25
2019-02-23T18:40:38.955Z,9.20
2019-02-23T18:43:06.501Z,7.50
2019-02-23T18:45:33.955Z,5.90
2019-02-23T18:48:01.387Z,6.12
2019-02-23T18:50:28.927Z,6.40
2019-02-23T18:52:56.534Z,6.37
2019-02-23T18:55:24.054Z,6.80
2019-02-23T18:57:51.933Z,6.55
2019-02-23T19:00:24.390Z,6.22
2019-02-23T19:02:48.786Z,6.90
2019-02-23T19:05:16.176Z,7.97
2019-02-23T19:07:43.608Z,8.30
2019-02-23T19:10:11.330Z,8.80
2019-02-23T19:12:38.886Z,8.68
2019-02-23T19:15:06.297Z,8.40
2019-02-23T19:17:33.695Z,9.18
2019-02-23T19:20:01.109Z,9.13
2019-02-23T19:22:28.622Z,9.18
2019-02-23T19:24:56.433Z,9.83
2019-02-23T19:27:23.890Z,9.88
2019-02-23T19:29:51.321Z,9.53
2019-02-23T19:32:18.748Z,9.93
2019-02-23T19:34:46.193Z,9.65
2019-02-23T19:37:13.622Z,10.25
2019-02-23T19:39:41.327Z,9.95
2019-02-23T19:42:08.773Z,10.13
2019-02-23T19:44:36.244Z,10.53
2019-02-23T19:47:03.680Z,9.63
2019-02-23T19:49:31.244Z,9.88
2019-02-23T19:51:58.841Z,10.40
2019-02-23T19:54:26.268Z,10.18
2019-02-23T19:56:53.670Z,9.88
2019-02-23T19:59:21.131Z,10.38
2019-02-23T20:01:48.548Z,9.58
2019-02-23T20:04:16.072Z,10.63
2019-02-23T20:06:43.552Z,9.88
2019-02-23T20:09:11.077Z,9.85
2019-02-23T20:11:38.568Z,10.13
2019-02-23T20:14:05.978Z,9.45
2019-02-23T20:16:33.394Z,10.08
2019-02-23T20:19:00.856Z,9.88
2019-02-23T20:21:28.399Z,9.90
2019-02-23T20:23:55.852Z,10.30
2019-02-23T20:26:23.255Z,10.20
2019-02-23T20:28:50.715Z,10.68
2019-02-23T20:31:18.166Z,10.03
2019-02-23T20:33:45.655Z,10.38
2019-02-23T20:36:13.264Z,10.35
2019-02-23T20:38:40.825Z,10.15
2019-02-23T20:41:08.239Z,9.58
2019-02-23T20:43:35.940Z,9.53
2019-02-23T20:46:03.455Z,9.35
2019-02-23T20:48:31.041Z,9.10
2019-02-23T20:50:58.543Z,9.03
2019-02-23T20:53:26.004Z,8.93
2019-02-23T20:55:53.416Z,9.58
2019-02-23T20:58:20.859Z,8.80
2019-02-23T21:00:48.949Z,9.43
2019-02-23T21:03:16.621Z,9.33
2019-02-23T21:05:44.080Z,9.13
2019-02-23T21:08:11.677Z,8.98
2019-02-23T21:10:39.229Z,9.07
2019-02-23T21:13:06.860Z,9.30
2019-02-23T21:15:34.224Z,9.18
2019-02-23T21:18:01.619Z,8.67
2019-02-23T21:20:29.052Z,9.43
2019-02-23T21:22:56.678Z,9.20
2019-02-23T21:25:24.151Z,9.00
2019-02-23T21:27:51.593Z,9.13
2019-02-23T21:30:19.067Z,8.25
2019-02-23T21:32:47.137Z,8.40
2019-02-23T21:35:14.599Z,8.73
2019-02-23T21:37:41.996Z,9.23
2019-02-23T21:40:09.411Z,8.83
2019-02-23T21:42:36.832Z,9.50
2019-02-23T21:45:04.283Z,9.03
2019-02-23T21:47:31.693Z,9.50
2019-02-23T21:49:59.121Z,8.78
2019-02-23T21:52:26.504Z,9.80
2019-02-23T21:54:54.093Z,9.15
2019-02-23T21:57:22.382Z,9.13
2019-02-23T21:59:50.082Z,9.20
2019-02-23T22:02:17.493Z,9.18
2019-02-23T22:04:45.131Z,9.30
2019-02-23T22:07:12.618Z,9.40
2019-02-23T22:09:40.129Z,9.15
2019-02-23T22:12:07.635Z,9.27
2019-02-23T22:14:35.009Z,9.68
2019-02-23T22:17:02.465Z,9.97
2019-02-23T22:19:29.973Z,9.83
2019-02-23T22:21:57.446Z,9.57
2019-02-23T22:24:24.860Z,9.90
2019-02-23T22:26:52.627Z,9.60
2019-02-23T22:29:20.024Z,9.47
2019-02-23T22:31:47.412Z,9.73
2019-02-23T22:34:14.854Z,10.10
2019-02-23T22:36:42.409Z,9.18
2019-02-23T22:39:09.878Z,10.03
2019-02-23T22:41:37.293Z,9.13
2019-02-23T22:44:04.685Z,9.20
2019-02-23T22:46:32.077Z,9.00
2019-02-23T22:48:59.826Z,10.05
2019-02-23T22:51:27.283Z,8.50
2019-02-23T22:53:55.227Z,8.40
2019-02-23T22:56:23.472Z,8.13
2019-02-23T22:58:51.406Z,8.20
2019-02-23T23:01:19.466Z,7.85
2019-02-23T23:03:47.711Z,7.47
2019-02-23T23:06:15.123Z,7.65
2019-02-23T23:08:43.438Z,7.78
2019-02-23T23:11:10.875Z,7.35
2019-02-23T23:13:38.440Z,7.30
2019-02-23T23:16:05.839Z,8.25
2019-02-23T23:18:33.289Z,8.08
2019-02-23T23:21:00.695Z,7.75
2019-02-23T23:23:28.283Z,7.85
2019-02-23T23:25:55.767Z,8.17
2019-02-23T23:28:23.205Z,8.33
2019-02-23T23:30:50.828Z,7.62
2019-02-23T23:33:18.253Z,8.50
2019-02-23T23:35:45.691Z,8.00
2019-02-23T23:38:13.329Z,8.33
2019-02-23T23:40:40.721Z,8.73
2019-02-23T23:43:08.154Z,9.25
2019-02-23T23:45:35.557Z,8.37
2019-02-23T23:48:02.959Z,8.57
2019-02-23T23:50:30.397Z,9.05
2019-02-23T23:52:57.806Z,8.57
2019-02-23T23:55:25.323Z,8.97
2019-02-23T23:57:58.204Z,8.43
